Home   Weather   Germany   Konstanz   Past weeks
Flag for Germany

Past Weather in Konstanz, Baden-Württemberg, Germany — Yesterday and Last 2 Weeks

Currently: 50 °F. Sunny. (Weather station: Friedrichshafen Airport, Germany). See more current weather

Past Weather in Konstanz — Graph

°F

Konstanz Temperature Yesterday

Maximum temperature yesterday: 46 °F (at 1:20 pm)
Minimum temperature yesterday: 28 °F (at 6:20 am)
Average temperature yesterday: 37 °F

High & Low Weather Summary for the Past Weeks

 TemperatureHumidityPressure
High64 °F (Feb 22, 3:50 pm)100% (Feb 17, 9:20 pm)30.63 "Hg (Feb 17, 9:20 pm)
Low27 °F (Feb 18, 4:20 am)30% (Feb 22, 4:20 pm)29.95 "Hg (Feb 18, 7:20 pm)
Average40 °F79%30.32 "Hg
* Reported Feb 17 10:20 am — Mar 4 10:20 am, Konstanz. Weather by CustomWeather, © 2021

Note: Actual official high and low records may vary slightly from our data, if they occured in-between our weather recording intervals... More about our weather records

Konstanz Weather History for the Previous 24 Hours

Scroll right to see more
 ConditionsComfort  
Time TempWeatherWind HumidityBarometerVisibility
10:20 am
Thu, Mar 4
45 °FSunny.No wind71%30.18 "Hg10 mi
9:20 am39 °FSunny.No wind87%30.18 "Hg10 mi
8:50 am39 °FSunny.No wind87%30.18 "Hg10 mi
8:20 am36 °FSunny.No wind93%30.18 "Hg10 mi
7:50 am36 °FSunny.2 mph93%30.21 "Hg10 mi
7:20 am36 °FSunny.1 mph93%30.21 "Hg10 mi
6:50 am34 °FMostly cloudy.No wind100%30.21 "HgN/A
6:20 am34 °FOvercast.No wind93%30.21 "HgN/A
5:20 am34 °FOvercast.1 mph93%30.24 "HgN/A
4:50 am34 °FOvercast.2 mph93%30.24 "HgN/A
4:20 am34 °FMostly cloudy.2 mph93%30.24 "HgN/A
3:50 am34 °FOvercast.1 mph93%30.24 "Hg6 mi
3:20 am34 °FOvercast.No wind93%30.24 "HgN/A
2:50 am34 °FMostly cloudy.No wind93%30.27 "Hg6 mi
2:20 am32 °FOvercast.No wind100%30.27 "Hg6 mi
1:50 am32 °FOvercast.No wind100%30.27 "Hg5 mi
1:20 am32 °FPassing clouds.3 mph100%30.27 "Hg5 mi
12:50 am34 °FPassing clouds.1 mph93%30.30 "Hg6 mi
12:20 am34 °FMostly cloudy.No wind93%30.30 "HgN/A
11:50 pm
Wed, Mar 3
34 °FPassing clouds.No wind93%30.30 "HgN/A
11:20 pm34 °FPassing clouds.2 mph93%30.33 "HgN/A
10:50 pm36 °FOvercast.2 mph87%30.33 "HgN/A
10:20 pm36 °FOvercast.No wind87%30.33 "HgN/A
9:50 pm36 °FPassing clouds.No wind87%30.33 "HgN/A
9:20 pm36 °FPassing clouds.No wind87%30.33 "HgN/A
8:20 pm37 °FPassing clouds.No wind75%30.36 "HgN/A
7:50 pm37 °FClear.No wind81%30.36 "Hg10 mi
7:20 pm39 °FClear.1 mph75%30.36 "Hg10 mi
6:50 pm41 °FClear.No wind70%30.36 "Hg10 mi
6:20 pm43 °FClear.No wind66%30.36 "Hg10 mi
5:50 pm45 °FSunny.1 mph66%30.36 "Hg10 mi
5:20 pm45 °FSunny.1 mph66%30.36 "Hg10 mi
4:50 pm45 °FSunny.2 mph61%30.36 "Hg10 mi
4:20 pm46 °FSunny.3 mph62%30.36 "Hg10 mi
3:50 pm46 °FSunny.3 mph62%30.39 "Hg10 mi
3:20 pm46 °FSunny.3 mph57%30.39 "Hg10 mi
2:50 pm46 °FPassing clouds.3 mph62%30.39 "HgN/A
2:20 pm46 °FPassing clouds.3 mph62%30.42 "HgN/A
1:50 pm46 °FSunny.1 mph62%30.42 "Hg10 mi
1:20 pm46 °FSunny.1 mph66%30.42 "Hg10 mi
12:50 pm45 °FSunny.2 mph66%30.45 "Hg10 mi
12:20 pm43 °FSunny.No wind76%30.45 "Hg10 mi
11:50 am41 °FSunny.No wind81%30.45 "Hg10 mi
11:20 am41 °FPartly sunny.No wind81%30.45 "HgN/A
Weather by CustomWeather, © 2021

See weather overview